logo
Search for airport 
image banner adimage banner adimage banner ad
image banner ad

VOGB - Kalaburagi Airport

Located in Kalaburagi, India

ICAO - , IATA - GBI

Data provided by Airmate  

General information

Coordinates: N17°18'35" E76°57'26"
Elevation is 1567 feet MSL.
 
View others Airports in Karnataka

Operational data

Special qualification required
Current time UTC:
Current local time:
Weather at : - ( 0 km )
METAR: PAKU 152145Z 22016KT 10SM R24/P6000FT DRSN BKN220 M04/M08 A3005
View NOTAMs / SUP AIP / TFR affecting this airport [VIEW]
Communications frequencies: [VIEW]

Runways:

RWY identifierQFULength (ft)Width (ft)SurfaceLDA (ft)
0987°10417148UNK
27267°10417148UNK

Airport contact information

Address: Kalaburagi India

Satellite view of VOGB